Time,TemperatureF,DewpointF,PressureIn,WindDirection,WindDirectionDegrees,WindSpeedMPH,WindSpeedGustMPH,Humidity,HourlyPrecipIn,Conditions,Clouds,dailyrainin,SoftwareType,DateUTC
2013-02-20 00:21:00,52.0,40.0,29.60,WNW,300,3.0,-999.0,64,0.00,,,-99.99,,2013-02-20 08:21:00,
2013-02-20 00:31:00,52.0,40.0,29.60,WNW,300,3.0,-999.0,64,0.00,,,-99.99,,2013-02-20 08:31:00,
2013-02-20 00:41:00,52.0,40.0,29.60,WNW,300,3.0,-999.0,64,0.00,,,-99.99,,2013-02-20 08:41:00,
2013-02-20 00:52:00,52.0,40.0,29.60,WNW,300,3.0,-999.0,64,0.00,,,-99.99,,2013-02-20 08:52:00,
2013-02-20 01:21:00,48.0,41.0,29.60,North,0,0.0,-999.0,77,0.10,,,-99.99,,2013-02-20 09:21:00,
2013-02-20 01:31:00,48.0,41.0,29.60,North,0,0.0,-999.0,77,0.10,,,-99.99,,2013-02-20 09:31:00,
2013-02-20 01:41:00,48.0,41.0,29.60,North,0,0.0,-999.0,77,0.10,,,-99.99,,2013-02-20 09:41:00,
2013-02-20 01:51:00,48.0,41.0,29.60,North,0,0.0,-999.0,77,0.10,,,-99.99,,2013-02-20 09:51:00,
2013-02-20 02:21:00,47.0,42.0,29.58,North,0,0.0,-999.0,83,0.02,,,-99.99,,2013-02-20 10:21:00,
2013-02-20 02:31:00,47.0,42.0,29.58,North,0,0.0,-999.0,83,0.02,,,-99.99,,2013-02-20 10:31:00,
2013-02-20 02:41:00,47.0,42.0,29.58,North,0,0.0,-999.0,83,0.02,,,-99.99,,2013-02-20 10:41:00,
2013-02-20 02:51:00,47.0,42.0,29.58,North,0,0.0,-999.0,83,0.02,,,-99.99,,2013-02-20 10:51:00,
2013-02-20 03:21:00,46.0,41.0,29.59,North,0,0.0,-999.0,84,0.01,,,-99.99,,2013-02-20 11:21:00,
2013-02-20 03:32:00,46.0,41.0,29.59,North,0,0.0,-999.0,84,0.01,,,-99.99,,2013-02-20 11:32:00,
2013-02-20 03:41:00,46.0,41.0,29.59,North,0,0.0,-999.0,84,0.01,,,-99.99,,2013-02-20 11:41:00,
2013-02-20 03:52:00,46.0,41.0,29.59,North,0,0.0,-999.0,84,0.01,,,-99.99,,2013-02-20 11:52:00,
2013-02-20 04:21:00,45.0,41.0,29.58,North,0,0.0,-999.0,86,0.00,,,-99.99,,2013-02-20 12:21:00,
2013-02-20 04:31:00,45.0,41.0,29.58,North,0,0.0,-999.0,86,0.00,,,-99.99,,2013-02-20 12:31:00,
2013-02-20 04:42:00,45.0,41.0,29.58,North,0,0.0,-999.0,86,0.00,,,-99.99,,2013-02-20 12:42:00,
2013-02-20 04:52:00,45.0,41.0,29.58,North,0,0.0,-999.0,86,0.00,,,-99.99,,2013-02-20 12:52:00,
2013-02-20 05:22:00,44.0,41.0,29.58,North,0,0.0,-999.0,88,0.00,,,-99.99,,2013-02-20 13:22:00,
2013-02-20 05:31:00,44.0,41.0,29.58,North,0,0.0,-999.0,88,0.00,,,-99.99,,2013-02-20 13:31:00,
2013-02-20 05:42:00,44.0,41.0,29.58,North,0,0.0,-999.0,88,0.00,,,-99.99,,2013-02-20 13:42:00,
2013-02-20 05:51:00,44.0,41.0,29.58,North,0,0.0,-999.0,88,0.00,,,-99.99,,2013-02-20 13:51:00,
2013-02-20 06:21:00,44.0,39.0,29.60,North,0,0.0,-999.0,84,0.00,,,-99.99,,2013-02-20 14:21:00,
2013-02-20 06:32:00,44.0,39.0,29.60,North,0,0.0,-999.0,84,0.00,,,-99.99,,2013-02-20 14:32:00,
2013-02-20 06:42:00,44.0,39.0,29.60,North,0,0.0,-999.0,84,0.00,,,-99.99,,2013-02-20 14:42:00,
2013-02-20 06:52:00,44.0,39.0,29.60,North,0,0.0,-999.0,84,0.00,,,-99.99,,2013-02-20 14:52:00,
2013-02-20 07:22:00,45.0,36.0,29.62,North,0,0.0,-999.0,70,0.00,,,-99.99,,2013-02-20 15:22:00,
2013-02-20 07:32:00,45.0,36.0,29.62,North,0,0.0,-999.0,70,0.00,,,-99.99,,2013-02-20 15:32:00,
2013-02-20 07:41:00,45.0,36.0,29.62,North,0,0.0,-999.0,70,0.00,,,-99.99,,2013-02-20 15:41:00,
2013-02-20 07:51:00,45.0,36.0,29.62,North,0,0.0,-999.0,70,0.00,,,-99.99,,2013-02-20 15:51:00,
2013-02-20 08:21:00,47.0,35.0,29.64,North,0,0.0,-999.0,64,0.00,,,-99.99,,2013-02-20 16:21:00,
2013-02-20 08:32:00,47.0,35.0,29.64,North,0,0.0,-999.0,64,0.00,,,-99.99,,2013-02-20 16:32:00,
2013-02-20 08:41:00,47.0,35.0,29.64,North,0,0.0,-999.0,64,0.00,,,-99.99,,2013-02-20 16:41:00,
2013-02-20 08:51:00,47.0,35.0,29.64,North,0,0.0,-999.0,64,0.00,,,-99.99,,2013-02-20 16:51:00,
2013-02-20 10:21:00,53.0,30.0,29.67,SW,220,3.0,-999.0,41,0.00,,,-99.99,,2013-02-20 18:21:00,
2013-02-20 10:31:00,53.0,30.0,29.67,SW,220,3.0,-999.0,41,0.00,,,-99.99,,2013-02-20 18:31:00,
2013-02-20 10:42:00,53.0,30.0,29.67,SW,220,3.0,-999.0,41,0.00,,,-99.99,,2013-02-20 18:42:00,
2013-02-20 10:51:00,53.0,30.0,29.67,SW,220,3.0,-999.0,41,0.00,,,-99.99,,2013-02-20 18:51:00,
2013-02-20 11:21:00,55.0,30.0,29.69,North,0,0.0,-999.0,38,0.00,,,-99.99,,2013-02-20 19:21:00,
2013-02-20 11:31:00,55.0,30.0,29.69,North,0,0.0,-999.0,38,0.00,,,-99.99,,2013-02-20 19:31:00,
2013-02-20 11:41:00,55.0,30.0,29.69,North,0,0.0,-999.0,38,0.00,,,-99.99,,2013-02-20 19:41:00,
2013-02-20 11:51:00,55.0,30.0,29.69,North,0,0.0,-999.0,38,0.00,,,-99.99,,2013-02-20 19:51:00,
2013-02-20 12:21:00,59.0,33.0,29.68,North,0,0.0,-999.0,38,0.00,,,-99.99,,2013-02-20 20:21:00,
2013-02-20 12:31:00,59.0,33.0,29.68,North,0,0.0,-999.0,38,0.00,,,-99.99,,2013-02-20 20:31:00,
2013-02-20 12:41:00,59.0,33.0,29.68,North,0,0.0,-999.0,38,0.00,,,-99.99,,2013-02-20 20:41:00,
2013-02-20 12:51:00,59.0,33.0,29.68,North,0,0.0,-999.0,38,0.00,,,-99.99,,2013-02-20 20:51:00,
2013-02-20 13:21:00,61.0,32.0,29.68,NE,50,2.0,-999.0,34,0.00,,,-99.99,,2013-02-20 21:21:00,
2013-02-20 13:31:00,61.0,32.0,29.68,NE,50,2.0,-999.0,34,0.00,,,-99.99,,2013-02-20 21:31:00,
2013-02-20 13:41:00,61.0,32.0,29.68,NE,50,2.0,-999.0,34,0.00,,,-99.99,,2013-02-20 21:41:00,
2013-02-20 13:51:00,61.0,32.0,29.68,NE,50,2.0,-999.0,34,0.00,,,-99.99,,2013-02-20 21:51:00,
2013-02-20 14:21:00,63.0,33.0,29.68,NNE,20,1.0,-999.0,32,0.00,,,-99.99,,2013-02-20 22:21:00,
2013-02-20 14:31:00,63.0,33.0,29.68,NNE,20,1.0,-999.0,32,0.00,,,-99.99,,2013-02-20 22:31:00,
2013-02-20 14:42:00,63.0,33.0,29.68,NNE,20,1.0,-999.0,32,0.00,,,-99.99,,2013-02-20 22:42:00,
2013-02-20 14:51:00,63.0,33.0,29.68,NNE,20,1.0,-999.0,32,0.00,,,-99.99,,2013-02-20 22:51:00,
2013-02-20 15:22:00,65.0,33.0,29.68,North,0,0.0,-999.0,30,0.00,,,-99.99,,2013-02-20 23:22:00,
2013-02-20 15:31:00,65.0,33.0,29.68,North,0,0.0,-999.0,30,0.00,,,-99.99,,2013-02-20 23:31:00,
2013-02-20 15:42:00,65.0,33.0,29.68,North,0,0.0,-999.0,30,0.00,,,-99.99,,2013-02-20 23:42:00,
2013-02-20 15:52:00,65.0,33.0,29.68,North,0,0.0,-999.0,30,0.00,,,-99.99,,2013-02-20 23:52:00,
2013-02-20 16:21:00,66.0,33.0,29.70,North,360,4.0,-999.0,29,0.00,,,-99.99,,2013-02-21 00:21:00,
2013-02-20 16:32:00,66.0,33.0,29.70,North,360,4.0,-999.0,29,0.00,,,-99.99,,2013-02-21 00:32:00,
2013-02-20 16:42:00,66.0,33.0,29.70,North,360,4.0,-999.0,29,0.00,,,-99.99,,2013-02-21 00:42:00,
2013-02-20 16:52:00,66.0,33.0,29.70,North,360,4.0,-999.0,29,0.00,,,-99.99,,2013-02-21 00:52:00,
2013-02-20 17:21:00,65.0,31.0,29.73,North,0,0.0,-999.0,28,0.00,,,-99.99,,2013-02-21 01:21:00,
2013-02-20 17:32:00,65.0,31.0,29.73,North,0,0.0,-999.0,28,0.00,,,-99.99,,2013-02-21 01:32:00,
2013-02-20 17:41:00,65.0,31.0,29.73,North,0,0.0,-999.0,28,0.00,,,-99.99,,2013-02-21 01:41:00,
2013-02-20 17:51:00,65.0,31.0,29.73,North,0,0.0,-999.0,28,0.00,,,-99.99,,2013-02-21 01:51:00,
2013-02-20 18:21:00,60.0,33.0,29.75,North,0,0.0,-999.0,36,0.00,,,-99.99,,2013-02-21 02:21:00,
2013-02-20 18:32:00,60.0,33.0,29.75,North,0,0.0,-999.0,36,0.00,,,-99.99,,2013-02-21 02:32:00,
2013-02-20 18:42:00,60.0,33.0,29.75,North,0,0.0,-999.0,36,0.00,,,-99.99,,2013-02-21 02:42:00,
2013-02-20 18:51:00,60.0,33.0,29.75,North,0,0.0,-999.0,36,0.00,,,-99.99,,2013-02-21 02:51:00,
2013-02-20 19:21:00,58.0,33.0,29.77,North,0,0.0,-999.0,39,0.00,,,-99.99,,2013-02-21 03:21:00,
2013-02-20 19:31:00,58.0,33.0,29.77,North,0,0.0,-999.0,39,0.00,,,-99.99,,2013-02-21 03:31:00,
2013-02-20 19:41:00,58.0,33.0,29.77,North,0,0.0,-999.0,39,0.00,,,-99.99,,2013-02-21 03:41:00,
2013-02-20 19:51:00,58.0,33.0,29.77,North,0,0.0,-999.0,39,0.00,,,-99.99,,2013-02-21 03:51:00,
2013-02-20 20:21:00,55.0,33.0,29.80,North,0,0.0,-999.0,44,0.00,,,-99.99,,2013-02-21 04:21:00,
2013-02-20 20:32:00,55.0,33.0,29.80,North,0,0.0,-999.0,44,0.00,,,-99.99,,2013-02-21 04:32:00,
2013-02-20 20:41:00,55.0,33.0,29.80,North,0,0.0,-999.0,44,0.00,,,-99.99,,2013-02-21 04:41:00,
2013-02-20 20:51:00,55.0,33.0,29.80,North,0,0.0,-999.0,44,0.00,,,-99.99,,2013-02-21 04:51:00,
2013-02-20 21:22:00,53.0,35.0,29.82,North,0,0.0,-999.0,50,0.00,,,-99.99,,2013-02-21 05:22:00,
2013-02-20 21:33:00,53.0,35.0,29.82,North,0,0.0,-999.0,50,0.00,,,-99.99,,2013-02-21 05:33:00,
2013-02-20 21:43:00,53.0,35.0,29.82,North,0,0.0,-999.0,50,0.00,,,-99.99,,2013-02-21 05:43:00,
2013-02-20 21:52:00,53.0,35.0,29.82,North,0,0.0,-999.0,50,0.00,,,-99.99,,2013-02-21 05:52:00,
2013-02-20 22:21:00,51.0,35.0,29.83,North,0,0.0,-999.0,55,0.00,,,-99.99,,2013-02-21 06:21:00,
2013-02-20 22:31:00,51.0,35.0,29.83,North,0,0.0,-999.0,55,0.00,,,-99.99,,2013-02-21 06:31:00,
2013-02-20 22:41:00,51.0,35.0,29.83,North,0,0.0,-999.0,55,0.00,,,-99.99,,2013-02-21 06:41:00,
2013-02-20 22:51:00,51.0,35.0,29.83,North,0,0.0,-999.0,55,0.00,,,-99.99,,2013-02-21 06:51:00,
2013-02-20 23:21:00,48.0,36.0,29.84,North,0,0.0,-999.0,63,0.00,,,-99.99,,2013-02-21 07:21:00,
2013-02-20 23:31:00,48.0,36.0,29.84,North,0,0.0,-999.0,63,0.00,,,-99.99,,2013-02-21 07:31:00,
2013-02-20 23:42:00,48.0,36.0,29.84,North,0,0.0,-999.0,63,0.00,,,-99.99,,2013-02-21 07:42:00,
2013-02-20 23:52:00,48.0,36.0,29.84,North,0,0.0,-999.0,63,0.00,,,-99.99,,2013-02-21 07:52:00,